createdAt,value
2017-09-20T00:00:15.057Z,0.00
2017-09-20T00:01:15.053Z,0.00
2017-09-20T00:02:15.433Z,0.00
2017-09-20T00:03:15.147Z,0.00
2017-09-20T00:04:15.196Z,0.00
2017-09-20T00:05:15.161Z,0.00
2017-09-20T00:06:15.235Z,0.00
2017-09-20T00:07:15.264Z,0.00
2017-09-20T00:08:15.551Z,0.00
2017-09-20T00:09:15.287Z,0.00
2017-09-20T00:10:15.430Z,0.00
2017-09-20T00:11:15.350Z,0.00
2017-09-20T00:12:15.417Z,0.00
2017-09-20T00:13:15.432Z,0.00
2017-09-20T00:14:15.794Z,0.00
2017-09-20T00:15:15.531Z,0.00
2017-09-20T00:16:15.518Z,0.00
2017-09-20T00:17:15.542Z,0.00
2017-09-20T00:18:15.638Z,0.00
2017-09-20T00:19:15.667Z,0.00
2017-09-20T00:20:16.086Z,0.00
2017-09-20T00:21:15.706Z,0.00
2017-09-20T00:22:15.773Z,0.00
2017-09-20T00:23:15.730Z,0.00
2017-09-20T00:24:15.794Z,0.00
2017-09-20T00:25:15.999Z,0.00
2017-09-20T00:26:16.129Z,0.00
2017-09-20T00:27:15.903Z,0.00
2017-09-20T00:28:15.925Z,0.00
2017-09-20T00:29:15.996Z,0.00
2017-09-20T00:30:16.024Z,0.00
2017-09-20T00:31:16.057Z,0.00
2017-09-20T00:32:16.389Z,0.00
2017-09-20T00:33:16.100Z,0.00
2017-09-20T00:34:16.091Z,0.00
2017-09-20T00:35:16.112Z,0.00
2017-09-20T00:36:16.505Z,0.00
2017-09-20T00:37:16.246Z,0.00
2017-09-20T00:38:16.574Z,0.00
2017-09-20T00:39:16.262Z,0.00
2017-09-20T00:40:16.329Z,0.00
2017-09-20T00:41:16.378Z,0.00
2017-09-20T00:42:16.386Z,0.00
2017-09-20T00:43:16.410Z,0.00
2017-09-20T00:44:16.724Z,0.00
2017-09-20T00:45:16.530Z,0.00
2017-09-20T00:46:16.479Z,0.00
2017-09-20T00:47:16.554Z,0.00
2017-09-20T00:48:16.582Z,0.00
2017-09-20T00:49:16.567Z,0.00
2017-09-20T00:51:16.941Z,0.00
2017-09-20T00:52:16.652Z,0.00
2017-09-20T00:53:16.708Z,0.00
2017-09-20T00:54:16.729Z,0.00
2017-09-20T00:55:16.849Z,0.00
2017-09-20T00:56:16.787Z,0.00
2017-09-20T00:57:17.165Z,0.00
2017-09-20T00:58:16.847Z,0.00
2017-09-20T00:59:16.878Z,0.00
2017-09-20T01:00:16.913Z,0.00
2017-09-20T01:01:16.971Z,0.00
2017-09-20T01:02:16.971Z,0.00
2017-09-20T01:03:17.067Z,0.00
2017-09-20T01:04:17.345Z,0.00
2017-09-20T01:05:17.116Z,0.00
2017-09-20T01:06:17.188Z,0.00
2017-09-20T01:07:17.129Z,0.00
2017-09-20T01:08:17.203Z,0.00
2017-09-20T01:09:17.227Z,0.00
2017-09-20T01:10:17.227Z,0.00
2017-09-20T01:11:17.710Z,0.00
2017-09-20T01:12:17.360Z,0.00
2017-09-20T01:13:17.330Z,0.00
2017-09-20T01:14:17.456Z,0.00
2017-09-20T01:15:17.446Z,0.00
2017-09-20T01:16:17.485Z,0.00
2017-09-20T01:17:17.546Z,0.00
2017-09-20T01:18:17.782Z,0.00
2017-09-20T01:19:17.516Z,0.00
2017-09-20T01:20:17.561Z,0.00
2017-09-20T01:21:17.599Z,0.00
2017-09-20T01:22:17.665Z,0.00
2017-09-20T01:23:17.811Z,0.00
2017-09-20T01:24:17.725Z,0.00
2017-09-20T01:25:18.059Z,0.00
2017-09-20T01:26:17.752Z,0.00
2017-09-20T01:27:17.768Z,0.00
2017-09-20T01:28:17.847Z,0.00
2017-09-20T01:29:17.840Z,0.00
2017-09-20T01:30:17.911Z,0.00
2017-09-20T01:31:18.380Z,0.00
2017-09-20T01:32:18.352Z,0.00
2017-09-20T01:33:17.973Z,0.00
2017-09-20T01:34:17.994Z,0.00
2017-09-20T01:35:18.097Z,0.00
2017-09-20T01:36:18.067Z,0.00
2017-09-20T01:37:18.157Z,0.00
2017-09-20T01:38:18.162Z,0.00
2017-09-20T01:39:18.164Z,0.00
2017-09-20T01:40:18.220Z,0.00
2017-09-20T01:41:18.213Z,0.00
2017-09-20T01:42:18.292Z,0.00
2017-09-20T01:43:18.397Z,0.00
2017-09-20T01:44:18.363Z,0.00
2017-09-20T01:45:18.697Z,0.00
2017-09-20T01:46:18.398Z,0.00
2017-09-20T01:47:18.464Z,0.00
2017-09-20T01:48:18.613Z,0.00
2017-09-20T01:49:18.500Z,0.00
2017-09-20T01:50:18.531Z,0.00
2017-09-20T01:51:18.843Z,0.00
2017-09-20T01:52:18.633Z,0.00
2017-09-20T01:53:18.629Z,0.00
2017-09-20T01:54:18.630Z,0.00
2017-09-20T01:55:18.671Z,0.00
2017-09-20T01:56:18.684Z,0.00
2017-09-20T01:57:19.020Z,0.00
2017-09-20T01:58:18.750Z,0.00
2017-09-20T01:59:18.950Z,0.00
2017-09-20T02:00:18.875Z,0.00
2017-09-20T02:01:18.847Z,0.00
2017-09-20T02:02:18.943Z,0.00
2017-09-20T02:03:19.268Z,0.00
2017-09-20T02:04:18.938Z,0.00
2017-09-20T02:05:18.985Z,0.00
2017-09-20T02:06:19.018Z,0.00
2017-09-20T02:07:19.090Z,0.00
2017-09-20T02:08:19.153Z,0.00
2017-09-20T02:09:19.660Z,0.00
2017-09-20T02:10:19.163Z,0.00
2017-09-20T02:11:19.182Z,0.00
2017-09-20T02:12:19.239Z,0.00
2017-09-20T02:13:19.275Z,0.00
2017-09-20T02:14:19.279Z,0.00
2017-09-20T02:15:19.593Z,0.00
2017-09-20T02:16:19.332Z,0.00
2017-09-20T02:17:19.365Z,0.00
2017-09-20T02:18:19.638Z,0.00
2017-09-20T02:19:19.472Z,0.00
2017-09-20T02:20:19.456Z,0.00
2017-09-20T02:21:20.061Z,0.00
2017-09-20T02:22:19.599Z,0.00
2017-09-20T02:23:19.610Z,0.00
2017-09-20T02:24:19.652Z,0.00
2017-09-20T02:25:19.626Z,0.00
2017-09-20T02:26:19.640Z,0.00
2017-09-20T02:27:19.995Z,0.00
2017-09-20T02:28:19.707Z,0.00
2017-09-20T02:29:19.840Z,0.00
2017-09-20T02:30:19.812Z,0.00
2017-09-20T02:31:19.817Z,0.00
2017-09-20T02:32:19.828Z,0.00
2017-09-20T02:33:20.166Z,0.00
2017-09-20T02:34:19.953Z,0.00
2017-09-20T02:35:19.928Z,0.00
2017-09-20T02:36:19.962Z,0.00
2017-09-20T02:37:19.987Z,0.00
2017-09-20T02:38:20.074Z,0.00
2017-09-20T02:39:20.430Z,0.00
2017-09-20T02:40:20.131Z,0.00
2017-09-20T02:41:20.188Z,0.00
2017-09-20T02:42:20.149Z,0.00
2017-09-20T02:43:20.377Z,0.00
2017-09-20T02:44:20.256Z,0.00
2017-09-20T02:45:20.672Z,0.00
2017-09-20T02:46:20.342Z,0.00
2017-09-20T02:47:20.302Z,0.00
2017-09-20T02:48:20.382Z,0.00
2017-09-20T02:49:20.428Z,0.00
2017-09-20T02:50:20.405Z,0.00
2017-09-20T02:51:20.785Z,0.00
2017-09-20T02:52:20.513Z,0.00
2017-09-20T02:53:20.492Z,0.00
2017-09-20T02:54:20.548Z,0.00
2017-09-20T02:55:20.548Z,0.00
2017-09-20T02:56:20.638Z,0.00
2017-09-20T02:57:20.922Z,0.00
2017-09-20T02:58:20.647Z,0.00
2017-09-20T02:59:20.679Z,0.00
2017-09-20T03:00:20.732Z,0.00
2017-09-20T03:01:20.755Z,0.00
2017-09-20T03:02:20.828Z,0.00
2017-09-20T03:03:21.148Z,0.00
2017-09-20T03:04:20.846Z,0.00
2017-09-20T03:05:20.922Z,0.00
2017-09-20T03:06:20.903Z,0.00
2017-09-20T03:07:20.940Z,0.00
2017-09-20T03:08:20.994Z,0.00
2017-09-20T03:09:21.068Z,0.00
2017-09-20T03:10:21.393Z,0.00
2017-09-20T03:11:21.119Z,0.00
2017-09-20T03:12:21.141Z,0.00
2017-09-20T03:13:21.121Z,0.00
2017-09-20T03:14:21.420Z,0.00
2017-09-20T03:15:21.227Z,0.00
2017-09-20T03:16:21.300Z,0.00
2017-09-20T03:17:21.576Z,0.00
2017-09-20T03:18:21.274Z,0.00
2017-09-20T03:19:21.381Z,0.00
2017-09-20T03:20:21.460Z,0.00
2017-09-20T03:21:21.397Z,0.00
2017-09-20T03:22:21.411Z,0.00
2017-09-20T03:23:21.445Z,0.00
2017-09-20T03:24:21.785Z,0.00
2017-09-20T03:25:21.503Z,0.00
2017-09-20T03:26:21.528Z,0.00
2017-09-20T03:27:21.613Z,0.00
2017-09-20T03:28:21.590Z,0.00
2017-09-20T03:29:21.714Z,0.00
2017-09-20T03:30:21.668Z,0.00
2017-09-20T03:31:22.002Z,0.00
2017-09-20T03:32:21.737Z,0.00
2017-09-20T03:33:21.771Z,0.00
2017-09-20T03:34:21.777Z,0.00
2017-09-20T03:35:21.914Z,0.00
2017-09-20T03:36:21.846Z,0.00
2017-09-20T03:37:21.928Z,0.00
2017-09-20T03:38:22.217Z,0.00
2017-09-20T03:39:21.934Z,0.00
2017-09-20T03:40:21.963Z,0.00
2017-09-20T03:41:22.082Z,0.00
2017-09-20T03:42:22.078Z,0.00
2017-09-20T03:43:22.117Z,0.00
2017-09-20T03:44:22.104Z,0.00
2017-09-20T03:45:22.489Z,0.00
2017-09-20T03:46:22.223Z,0.00
2017-09-20T03:47:22.193Z,0.00
2017-09-20T03:48:22.233Z,0.00
2017-09-20T03:49:22.387Z,0.00
2017-09-20T03:50:22.297Z,0.00
2017-09-20T03:51:22.346Z,0.00
2017-09-20T03:52:22.673Z,0.00
2017-09-20T03:53:22.391Z,0.00
2017-09-20T03:54:22.475Z,0.00
2017-09-20T03:55:22.444Z,0.00
2017-09-20T03:56:22.491Z,0.00
2017-09-20T03:57:22.556Z,0.00
2017-09-20T03:58:22.551Z,0.00
2017-09-20T03:59:22.918Z,0.00
2017-09-20T04:00:22.669Z,0.00
2017-09-20T04:01:22.646Z,0.00
2017-09-20T04:02:22.678Z,0.00
2017-09-20T04:03:22.701Z,0.00
2017-09-20T04:04:22.815Z,0.00
2017-09-20T04:05:22.815Z,0.00
2017-09-20T04:06:23.094Z,0.00
2017-09-20T04:07:22.876Z,0.00
2017-09-20T04:08:22.862Z,0.00
2017-09-20T04:09:23.099Z,0.00
2017-09-20T04:10:22.978Z,0.00
2017-09-20T04:11:22.948Z,0.00
2017-09-20T04:12:22.988Z,0.00
2017-09-20T04:13:23.322Z,0.00
2017-09-20T04:14:23.247Z,0.00
2017-09-20T04:15:23.105Z,0.00
2017-09-20T04:16:23.187Z,0.00
2017-09-20T04:17:23.190Z,0.00
2017-09-20T04:18:23.172Z,0.00
2017-09-20T04:19:23.662Z,0.00
2017-09-20T04:20:23.251Z,0.00
2017-09-20T04:21:23.294Z,0.00
2017-09-20T04:22:23.371Z,0.00
2017-09-20T04:23:23.336Z,0.00
2017-09-20T04:24:23.416Z,0.00
2017-09-20T04:25:23.755Z,0.00
2017-09-20T04:26:23.434Z,0.00
2017-09-20T04:27:23.511Z,0.00
2017-09-20T04:28:23.485Z,0.00
2017-09-20T04:29:23.568Z,0.00
2017-09-20T04:30:23.580Z,0.00
2017-09-20T04:31:24.632Z,0.00
2017-09-20T04:32:23.621Z,0.00
2017-09-20T04:33:23.659Z,0.00
2017-09-20T04:34:23.724Z,0.00
2017-09-20T04:35:23.755Z,0.00
2017-09-20T04:36:23.739Z,0.00
2017-09-20T04:37:24.116Z,0.00
2017-09-20T04:38:23.854Z,0.00
2017-09-20T04:39:23.885Z,0.00
2017-09-20T04:40:23.863Z,0.00
2017-09-20T04:41:23.913Z,0.00
2017-09-20T04:42:23.978Z,0.00
2017-09-20T04:43:24.331Z,0.00
2017-09-20T04:44:24.093Z,0.00
2017-09-20T04:45:24.027Z,0.00
2017-09-20T04:46:24.126Z,0.00
2017-09-20T04:47:24.172Z,0.00
2017-09-20T04:48:24.123Z,0.00
2017-09-20T04:49:24.663Z,0.00
2017-09-20T04:50:24.256Z,0.00
2017-09-20T04:51:24.231Z,0.00
2017-09-20T04:52:24.269Z,0.00
2017-09-20T04:53:24.380Z,0.00
2017-09-20T04:54:24.374Z,0.00
2017-09-20T04:55:24.644Z,0.00
2017-09-20T04:56:24.381Z,0.00
2017-09-20T04:57:24.410Z,0.00
2017-09-20T04:58:24.459Z,0.00
2017-09-20T04:59:24.643Z,0.00
2017-09-20T05:00:24.519Z,0.00
2017-09-20T05:01:24.834Z,0.00
2017-09-20T05:02:24.572Z,0.00
2017-09-20T05:03:24.602Z,0.00
2017-09-20T05:04:24.630Z,0.00
2017-09-20T05:05:24.669Z,0.00
2017-09-20T05:06:24.695Z,0.00
2017-09-20T05:07:25.084Z,0.00
2017-09-20T05:08:24.811Z,0.00
2017-09-20T05:09:24.900Z,0.00
2017-09-20T05:10:24.828Z,0.00
2017-09-20T05:11:24.861Z,0.00
2017-09-20T05:12:24.942Z,0.00
2017-09-20T05:13:25.258Z,0.00
2017-09-20T05:14:24.959Z,0.00
2017-09-20T05:15:25.037Z,0.00
2017-09-20T05:16:25.074Z,0.00
2017-09-20T05:17:25.127Z,0.00
2017-09-20T05:18:25.121Z,0.00
2017-09-20T05:19:25.468Z,0.00
2017-09-20T05:20:25.209Z,0.00
2017-09-20T05:21:25.194Z,0.00
2017-09-20T05:22:25.210Z,0.00
2017-09-20T05:23:25.249Z,0.00
2017-09-20T05:24:25.370Z,0.00
2017-09-20T05:25:25.615Z,0.00
2017-09-20T05:26:25.354Z,0.00
2017-09-20T05:27:25.370Z,0.00
2017-09-20T05:28:25.405Z,0.00
2017-09-20T05:29:25.443Z,0.00
2017-09-20T05:30:25.466Z,0.00
2017-09-20T05:31:25.806Z,0.00
2017-09-20T05:32:25.533Z,0.00
2017-09-20T05:33:25.578Z,0.00
2017-09-20T05:34:25.656Z,0.00
2017-09-20T05:35:26.002Z,0.00
2017-09-20T05:36:25.658Z,0.00
2017-09-20T05:37:25.990Z,0.00
2017-09-20T05:38:25.731Z,0.00
2017-09-20T05:39:25.756Z,0.00
2017-09-20T05:40:25.800Z,0.00
2017-09-20T05:41:25.928Z,0.00
2017-09-20T05:42:25.866Z,0.00
2017-09-20T05:43:25.888Z,0.00
2017-09-20T05:44:25.918Z,0.00
2017-09-20T05:45:25.950Z,0.00
2017-09-20T05:46:25.988Z,0.00
2017-09-20T05:47:26.077Z,0.00
2017-09-20T05:48:26.049Z,0.00
2017-09-20T05:49:26.438Z,0.00
2017-09-20T05:50:26.112Z,0.00
2017-09-20T05:51:26.146Z,0.00
2017-09-20T05:52:26.181Z,0.00
2017-09-20T05:53:26.363Z,0.00
2017-09-20T05:54:26.261Z,0.00
2017-09-20T05:55:26.294Z,0.00
2017-09-20T05:56:26.604Z,0.00
2017-09-20T05:57:26.348Z,0.00
2017-09-20T05:58:26.371Z,0.00
2017-09-20T05:59:26.518Z,0.00
2017-09-20T06:00:26.444Z,5.63
2017-09-20T06:01:26.469Z,0.00
2017-09-20T06:02:26.509Z,0.00
2017-09-20T06:03:26.865Z,0.00
2017-09-20T06:04:26.568Z,0.00
2017-09-20T06:05:26.598Z,0.00
2017-09-20T06:06:26.641Z,0.00
2017-09-20T06:07:26.667Z,0.00
2017-09-20T06:08:26.695Z,5.63
2017-09-20T06:09:26.728Z,5.63
2017-09-20T06:10:27.231Z,5.63
2017-09-20T06:11:26.802Z,5.63
2017-09-20T06:12:26.838Z,5.63
2017-09-20T06:13:26.858Z,5.63
2017-09-20T06:14:26.946Z,5.63
2017-09-20T06:15:26.923Z,5.63
2017-09-20T06:16:26.956Z,5.63
2017-09-20T06:17:27.302Z,5.63
2017-09-20T06:18:27.021Z,5.63
2017-09-20T06:19:27.059Z,11.25
2017-09-20T06:20:27.088Z,11.25
2017-09-20T06:21:27.123Z,11.25
2017-09-20T06:22:27.180Z,16.88
2017-09-20T06:23:27.492Z,16.88
2017-09-20T06:24:27.212Z,16.88
2017-09-20T06:25:27.503Z,16.88
2017-09-20T06:26:27.278Z,16.88
2017-09-20T06:27:27.320Z,22.50
2017-09-20T06:28:27.344Z,22.50
2017-09-20T06:29:27.382Z,16.88
2017-09-20T06:30:27.713Z,16.88
2017-09-20T06:31:27.494Z,16.88
2017-09-20T06:32:27.471Z,16.88
2017-09-20T06:33:27.710Z,11.25
2017-09-20T06:34:27.537Z,11.25
2017-09-20T06:35:27.583Z,11.25
2017-09-20T06:36:27.600Z,11.25
2017-09-20T06:37:27.943Z,16.88
2017-09-20T06:38:27.725Z,16.88
2017-09-20T06:39:27.702Z,16.88
2017-09-20T06:40:27.785Z,16.88
2017-09-20T06:41:27.766Z,22.50
2017-09-20T06:42:27.807Z,16.88
2017-09-20T06:43:27.998Z,16.88
2017-09-20T06:44:28.165Z,22.50
2017-09-20T06:45:27.925Z,22.50
2017-09-20T06:46:27.931Z,22.50
2017-09-20T06:47:27.970Z,22.50
2017-09-20T06:48:27.993Z,16.88
2017-09-20T06:49:28.224Z,16.88
2017-09-20T06:50:28.062Z,16.88
2017-09-20T06:51:28.093Z,16.88
2017-09-20T06:52:28.122Z,16.88
2017-09-20T06:53:28.158Z,16.88
2017-09-20T06:54:28.189Z,22.50
2017-09-20T06:55:28.530Z,22.50
2017-09-20T06:56:28.257Z,28.13
2017-09-20T06:57:28.294Z,28.13
2017-09-20T06:58:28.372Z,22.50
2017-09-20T06:59:28.355Z,22.50
2017-09-20T07:00:28.382Z,28.13
2017-09-20T07:01:28.732Z,33.75
2017-09-20T07:02:28.463Z,39.38
2017-09-20T07:03:28.532Z,39.38
2017-09-20T07:04:28.515Z,45.00
2017-09-20T07:05:28.550Z,39.38
2017-09-20T07:06:28.590Z,28.13
2017-09-20T07:07:28.620Z,28.13
2017-09-20T07:08:28.648Z,28.13
2017-09-20T07:09:28.739Z,33.75
2017-09-20T07:10:28.732Z,33.75
2017-09-20T07:11:28.745Z,33.75
2017-09-20T07:12:28.782Z,39.38
2017-09-20T07:13:29.166Z,39.38
2017-09-20T07:14:28.843Z,33.75
2017-09-20T07:15:28.871Z,33.75
2017-09-20T07:16:28.923Z,33.75
2017-09-20T07:17:28.937Z,33.75
2017-09-20T07:18:28.981Z,28.13
2017-09-20T07:19:29.357Z,33.75
2017-09-20T07:20:29.036Z,39.38
2017-09-20T07:21:29.073Z,45.00
2017-09-20T07:22:29.098Z,50.63
2017-09-20T07:23:29.234Z,50.63
2017-09-20T07:24:29.207Z,39.38
2017-09-20T07:25:29.503Z,33.75
2017-09-20T07:26:29.237Z,33.75
2017-09-20T07:27:29.267Z,39.38
2017-09-20T07:28:29.299Z,45.00
2017-09-20T07:29:29.538Z,45.00
2017-09-20T07:30:29.367Z,39.38
2017-09-20T07:31:29.703Z,45.00
2017-09-20T07:32:29.430Z,50.63
2017-09-20T07:33:29.461Z,56.25
2017-09-20T07:34:29.506Z,61.88
2017-09-20T07:35:29.525Z,61.88
2017-09-20T07:36:29.562Z,67.50
2017-09-20T07:37:29.897Z,73.13
2017-09-20T07:38:29.623Z,78.75
2017-09-20T07:39:29.654Z,84.38
2017-09-20T07:40:29.699Z,78.75
2017-09-20T07:41:29.723Z,84.38
2017-09-20T07:42:29.860Z,84.38
2017-09-20T07:43:30.111Z,84.38
2017-09-20T07:44:29.830Z,73.13
2017-09-20T07:45:29.853Z,67.50
2017-09-20T07:46:29.886Z,61.88
2017-09-20T07:47:29.917Z,56.25
2017-09-20T07:48:30.047Z,56.25
2017-09-20T07:49:29.985Z,67.50
2017-09-20T07:50:30.326Z,73.13
2017-09-20T07:51:30.057Z,84.38
2017-09-20T07:52:30.099Z,78.75
2017-09-20T07:53:30.162Z,90.00
2017-09-20T07:54:30.150Z,101.25
2017-09-20T07:55:30.186Z,129.38
2017-09-20T07:56:30.528Z,140.63
2017-09-20T07:57:30.245Z,129.38
2017-09-20T07:58:30.344Z,123.75
2017-09-20T07:59:30.315Z,118.13
2017-09-20T08:00:30.347Z,112.50
2017-09-20T08:01:30.386Z,95.63
2017-09-20T08:02:30.416Z,90.00
2017-09-20T08:03:30.491Z,84.38
2017-09-20T08:04:30.476Z,84.38
2017-09-20T08:05:30.506Z,90.00
2017-09-20T08:06:30.540Z,95.63
2017-09-20T08:07:30.876Z,106.88
2017-09-20T08:08:30.605Z,118.13
2017-09-20T08:09:30.754Z,118.13
2017-09-20T08:10:30.678Z,118.13
2017-09-20T08:11:30.719Z,140.63
2017-09-20T08:12:30.739Z,146.25
2017-09-20T08:13:31.071Z,146.25
2017-09-20T08:14:30.804Z,157.50
2017-09-20T08:15:30.843Z,157.50
2017-09-20T08:16:30.887Z,157.50
2017-09-20T08:17:30.911Z,140.63
2017-09-20T08:18:31.151Z,123.75
2017-09-20T08:19:30.983Z,112.50
2017-09-20T08:20:31.311Z,112.50
2017-09-20T08:27:37.371Z,84.38
2017-09-20T08:27:44.989Z,90.00
2017-09-20T08:28:45.299Z,95.63
2017-09-20T08:29:45.036Z,95.63
2017-09-20T08:30:45.084Z,101.25
2017-09-20T08:31:45.420Z,112.50
2017-09-20T08:32:45.425Z,112.50
2017-09-20T08:33:45.293Z,118.13
2017-09-20T08:34:45.285Z,123.75
2017-09-20T08:36:45.335Z,135.00
2017-09-20T08:37:45.681Z,135.00
2017-09-20T08:38:45.710Z,135.00
2017-09-20T08:39:45.485Z,135.00
2017-09-20T08:40:45.464Z,129.38
2017-09-20T08:41:45.535Z,135.00
2017-09-20T08:42:45.502Z,135.00
2017-09-20T08:43:45.975Z,135.00
2017-09-20T08:44:45.816Z,135.00
2017-09-20T08:45:45.711Z,140.63
2017-09-20T08:46:45.605Z,146.25
2017-09-20T08:47:45.637Z,151.88
2017-09-20T08:48:45.734Z,151.88
2017-09-20T08:49:46.004Z,151.88
2017-09-20T08:50:45.754Z,157.50
2017-09-20T08:51:45.767Z,163.13
2017-09-20T08:52:45.810Z,163.13
2017-09-20T08:53:45.885Z,151.88
2017-09-20T08:54:45.875Z,146.25
2017-09-20T08:55:46.205Z,146.25
2017-09-20T08:56:45.934Z,146.25
2017-09-20T08:57:45.973Z,140.63
2017-09-20T08:58:46.005Z,140.63
2017-09-20T08:59:46.190Z,135.00
2017-09-20T09:00:46.074Z,135.00
2017-09-20T09:01:46.407Z,135.00
2017-09-20T09:02:46.135Z,140.63
2017-09-20T09:03:46.202Z,146.25
2017-09-20T09:04:46.203Z,146.25
2017-09-20T09:05:46.239Z,140.63
2017-09-20T09:06:46.274Z,135.00
2017-09-20T09:07:46.321Z,135.00
2017-09-20T09:08:46.639Z,129.38
2017-09-20T09:09:46.372Z,129.38
2017-09-20T09:10:46.554Z,129.38
2017-09-20T09:11:46.451Z,129.38
2017-09-20T09:12:46.473Z,135.00
2017-09-20T09:13:46.507Z,140.63
2017-09-20T09:14:46.842Z,140.63
2017-09-20T09:15:46.571Z,146.25
2017-09-20T09:16:46.606Z,140.63
2017-09-20T09:17:46.642Z,146.25
2017-09-20T09:18:46.680Z,140.63
2017-09-20T09:19:46.709Z,129.38
2017-09-20T09:20:47.051Z,123.75
2017-09-20T09:21:46.777Z,123.75
2017-09-20T09:22:46.834Z,123.75
2017-09-20T09:23:46.843Z,118.13
2017-09-20T09:24:46.925Z,112.50
2017-09-20T09:25:46.910Z,112.50
2017-09-20T09:26:47.000Z,112.50
2017-09-20T09:27:47.278Z,106.88
2017-09-20T09:28:47.008Z,101.25
2017-09-20T09:29:47.050Z,101.25
2017-09-20T09:30:47.080Z,112.50
2017-09-20T09:31:47.109Z,112.50
2017-09-20T09:32:47.145Z,118.13
2017-09-20T09:33:47.480Z,123.75
2017-09-20T09:34:47.261Z,140.63
2017-09-20T09:35:47.245Z,146.25
2017-09-20T09:36:47.277Z,157.50
2017-09-20T09:37:47.320Z,157.50
2017-09-20T09:38:47.345Z,146.25
2017-09-20T09:39:47.679Z,135.00
2017-09-20T09:40:47.414Z,135.00
2017-09-20T09:41:47.447Z,135.00
2017-09-20T09:42:47.487Z,135.00
2017-09-20T09:43:47.535Z,146.25
2017-09-20T09:44:47.550Z,151.88
2017-09-20T09:45:48.103Z,151.88
2017-09-20T09:46:47.619Z,163.13
2017-09-20T09:47:47.685Z,180.00
2017-09-20T09:48:47.682Z,185.63
2017-09-20T09:49:47.719Z,180.00
2017-09-20T09:50:47.752Z,180.00
2017-09-20T09:51:48.187Z,185.63
2017-09-20T09:52:47.830Z,180.00
2017-09-20T09:53:47.854Z,168.75
2017-09-20T09:54:47.902Z,157.50
2017-09-20T09:55:47.918Z,168.75
2017-09-20T09:56:47.954Z,180.00
2017-09-20T09:57:48.291Z,168.75
2017-09-20T09:58:48.025Z,163.13
2017-09-20T09:59:48.055Z,163.13
2017-09-20T10:00:48.103Z,163.13
2017-09-20T10:01:48.130Z,174.38
2017-09-20T10:02:48.174Z,180.00
2017-09-20T10:03:48.202Z,191.25
2017-09-20T10:04:48.530Z,202.50
2017-09-20T10:05:48.270Z,208.13
2017-09-20T10:06:48.294Z,208.13
2017-09-20T10:07:48.324Z,208.13
2017-09-20T10:08:48.362Z,208.13
2017-09-20T10:09:48.409Z,208.13
2017-09-20T10:10:48.727Z,213.75
2017-09-20T10:11:48.470Z,213.75
2017-09-20T10:12:48.501Z,219.38
2017-09-20T10:13:48.539Z,213.75
2017-09-20T10:14:48.567Z,225.00
2017-09-20T10:15:48.621Z,230.63
2017-09-20T10:16:48.945Z,236.25
2017-09-20T10:17:48.669Z,225.00
2017-09-20T10:18:48.702Z,225.00
2017-09-20T10:19:48.766Z,213.75
2017-09-20T10:20:48.773Z,174.38
2017-09-20T10:21:48.805Z,163.13
2017-09-20T10:22:49.141Z,174.38
2017-09-20T10:23:48.875Z,191.25
2017-09-20T10:24:48.913Z,202.50
2017-09-20T10:25:49.032Z,191.25
2017-09-20T10:26:48.978Z,180.00
2017-09-20T10:27:49.326Z,180.00
2017-09-20T10:28:49.042Z,191.25
2017-09-20T10:29:49.081Z,185.63
2017-09-20T10:30:49.110Z,180.00
2017-09-20T10:31:49.160Z,174.38
2017-09-20T10:32:49.719Z,174.38
2017-09-20T10:33:49.528Z,180.00
2017-09-20T10:34:49.270Z,174.38
2017-09-20T10:35:49.287Z,163.13
2017-09-20T10:36:49.319Z,151.88
2017-09-20T10:37:49.412Z,135.00
2017-09-20T10:38:49.405Z,129.38
2017-09-20T10:39:49.726Z,129.38
2017-09-20T10:40:49.462Z,135.00
2017-09-20T10:41:49.497Z,135.00
2017-09-20T10:42:49.724Z,123.75
2017-09-20T10:43:49.566Z,112.50
2017-09-20T10:44:49.599Z,106.88
2017-09-20T10:45:49.934Z,106.88
2017-09-20T10:46:49.671Z,112.50
2017-09-20T10:47:49.901Z,112.50
2017-09-20T10:48:49.736Z,118.13
2017-09-20T10:49:49.775Z,118.13
2017-09-20T10:50:49.800Z,123.75
2017-09-20T10:51:50.136Z,129.38
2017-09-20T10:52:49.876Z,129.38
2017-09-20T10:53:50.056Z,140.63
2017-09-20T10:54:49.937Z,151.88
2017-09-20T10:55:49.979Z,157.50
2017-09-20T10:56:50.011Z,168.75
2017-09-20T10:57:50.358Z,174.38
2017-09-20T10:58:50.131Z,185.63
2017-09-20T10:59:50.121Z,191.25
2017-09-20T11:00:50.153Z,191.25
2017-09-20T11:01:50.188Z,180.00
2017-09-20T11:02:50.217Z,168.75
2017-09-20T11:03:50.751Z,157.50
2017-09-20T11:04:50.286Z,135.00
2017-09-20T11:05:50.322Z,123.75
2017-09-20T11:06:50.356Z,123.75
2017-09-20T11:07:50.391Z,123.75
2017-09-20T11:08:50.430Z,123.75
2017-09-20T11:09:50.758Z,129.38
2017-09-20T11:10:50.489Z,129.38
2017-09-20T11:11:50.527Z,129.38
2017-09-20T11:12:50.573Z,123.75
2017-09-20T11:13:50.595Z,129.38
2017-09-20T11:14:50.629Z,129.38
2017-09-20T11:15:50.976Z,135.00
2017-09-20T11:16:50.763Z,135.00
2017-09-20T11:17:50.738Z,135.00
2017-09-20T11:18:50.771Z,140.63
2017-09-20T11:19:50.903Z,146.25
2017-09-20T11:20:50.835Z,151.88
2017-09-20T11:22:51.206Z,157.50
2017-09-20T11:23:50.938Z,163.13
2017-09-20T11:24:50.971Z,163.13
2017-09-20T11:25:51.063Z,174.38
2017-09-20T11:26:51.039Z,191.25
2017-09-20T11:27:51.100Z,208.13
2017-09-20T11:28:51.574Z,219.38
2017-09-20T11:29:51.146Z,213.75
2017-09-20T11:30:51.181Z,202.50
2017-09-20T11:32:51.261Z,196.88
2017-09-20T11:33:51.282Z,208.13
2017-09-20T11:34:51.721Z,213.75
2017-09-20T11:35:51.356Z,213.75
2017-09-20T11:36:51.479Z,208.13
2017-09-20T11:37:51.450Z,208.13
2017-09-20T11:38:51.558Z,208.13
2017-09-20T11:39:51.497Z,219.38
2017-09-20T11:40:51.842Z,225.00
2017-09-20T11:41:51.560Z,219.38
2017-09-20T11:42:51.594Z,219.38
2017-09-20T11:43:51.635Z,213.75
2017-09-20T11:44:51.669Z,213.75
2017-09-20T11:45:51.699Z,208.13
2017-09-20T11:46:52.034Z,202.50
2017-09-20T11:47:51.808Z,196.88
2017-09-20T11:48:51.808Z,196.88
2017-09-20T11:49:51.892Z,191.25
2017-09-20T11:50:51.869Z,185.63
2017-09-20T11:51:51.903Z,185.63
2017-09-20T11:52:52.249Z,185.63
2017-09-20T11:53:51.988Z,191.25
2017-09-20T11:54:52.011Z,191.25
2017-09-20T11:55:52.103Z,185.63
2017-09-20T11:56:52.078Z,174.38
2017-09-20T11:57:52.126Z,168.75
2017-09-20T11:58:52.459Z,157.50
2017-09-20T11:59:52.188Z,151.88
2017-09-20T12:00:52.227Z,140.63
2017-09-20T12:01:52.260Z,135.00
2017-09-20T12:02:52.290Z,135.00
2017-09-20T12:03:52.327Z,140.63
2017-09-20T12:04:52.656Z,140.63
2017-09-20T12:05:52.404Z,140.63
2017-09-20T12:06:52.437Z,140.63
2017-09-20T12:07:52.465Z,140.63
2017-09-20T12:08:52.515Z,146.25
2017-09-20T12:09:52.545Z,146.25
2017-09-20T12:10:52.879Z,157.50
2017-09-20T12:11:52.609Z,174.38
2017-09-20T12:12:52.645Z,196.88
2017-09-20T12:13:52.677Z,219.38
2017-09-20T12:14:52.702Z,230.63
2017-09-20T12:15:52.740Z,236.25
2017-09-20T12:16:53.076Z,241.88
2017-09-20T12:17:52.820Z,247.50
2017-09-20T12:18:52.859Z,247.50
2017-09-20T12:19:52.932Z,230.63
2017-09-20T12:20:52.921Z,219.38
2017-09-20T12:22:53.285Z,180.00
2017-09-20T12:23:53.022Z,168.75
2017-09-20T12:24:53.053Z,168.75
2017-09-20T12:25:53.091Z,168.75
2017-09-20T12:26:53.131Z,174.38
2017-09-20T12:27:53.166Z,180.00
2017-09-20T12:28:53.491Z,185.63
2017-09-20T12:29:53.483Z,191.25
2017-09-20T12:30:53.268Z,185.63
2017-09-20T12:31:53.299Z,174.38
2017-09-20T12:32:53.353Z,157.50
2017-09-20T12:33:53.365Z,151.88
2017-09-20T12:34:53.708Z,151.88
2017-09-20T12:35:53.435Z,151.88
2017-09-20T12:36:53.489Z,151.88
2017-09-20T12:37:53.522Z,151.88
2017-09-20T12:38:53.546Z,157.50
2017-09-20T12:39:53.576Z,163.13
2017-09-20T12:40:53.910Z,168.75
2017-09-20T12:41:53.646Z,180.00
2017-09-20T12:42:53.682Z,185.63
2017-09-20T12:43:53.718Z,196.88
2017-09-20T12:44:53.759Z,202.50
2017-09-20T12:45:53.823Z,202.50
2017-09-20T12:46:54.119Z,202.50
2017-09-20T12:47:53.865Z,219.38
2017-09-20T12:48:53.889Z,230.63
2017-09-20T12:49:53.932Z,236.25
2017-09-20T12:50:54.020Z,236.25
2017-09-20T12:51:54.017Z,230.63
2017-09-20T12:52:54.328Z,225.00
2017-09-20T12:53:54.080Z,219.38
2017-09-20T12:54:54.224Z,196.88
2017-09-20T12:55:54.147Z,180.00
2017-09-20T12:56:54.172Z,157.50
2017-09-20T12:57:54.206Z,146.25
2017-09-20T12:58:54.467Z,129.38
2017-09-20T12:59:54.272Z,129.38
2017-09-20T13:01:54.344Z,123.75
2017-09-20T13:02:54.383Z,129.38
2017-09-20T13:03:54.868Z,123.75
2017-09-20T13:04:54.671Z,112.50
2017-09-20T13:05:54.509Z,101.25
2017-09-20T13:06:54.550Z,101.25